sensor_id;sensor_type;location;lat;lon;timestamp;P1;durP1;ratioP1;P2;durP2;ratioP2
21438;SDS011;10880;50.302;18.736;2023-02-14T00:02:04;8.63;;;4.90;;
21438;SDS011;10880;50.302;18.736;2023-02-14T00:04:32;6.63;;;4.23;;
21438;SDS011;10880;50.302;18.736;2023-02-14T00:06:58;6.93;;;4.57;;
21438;SDS011;10880;50.302;18.736;2023-02-14T00:09:26;6.60;;;4.33;;
21438;SDS011;10880;50.302;18.736;2023-02-14T00:11:52;6.47;;;4.73;;
21438;SDS011;10880;50.302;18.736;2023-02-14T00:14:18;6.17;;;4.20;;
21438;SDS011;10880;50.302;18.736;2023-02-14T00:17:04;7.27;;;4.53;;
21438;SDS011;10880;50.302;18.736;2023-02-14T00:19:30;6.80;;;4.27;;
21438;SDS011;10880;50.302;18.736;2023-02-14T00:21:59;4.80;;;4.03;;
21438;SDS011;10880;50.302;18.736;2023-02-14T00:24:25;5.67;;;4.30;;
21438;SDS011;10880;50.302;18.736;2023-02-14T00:26:52;6.47;;;4.40;;
21438;SDS011;10880;50.302;18.736;2023-02-14T00:29:20;7.40;;;5.27;;
21438;SDS011;10880;50.302;18.736;2023-02-14T00:31:49;8.30;;;4.93;;
21438;SDS011;10880;50.302;18.736;2023-02-14T00:34:16;6.47;;;4.60;;
21438;SDS011;10880;50.302;18.736;2023-02-14T00:36:44;7.07;;;4.63;;
21438;SDS011;10880;50.302;18.736;2023-02-14T00:39:11;7.90;;;4.70;;
21438;SDS011;10880;50.302;18.736;2023-02-14T00:41:39;5.60;;;4.30;;
21438;SDS011;10880;50.302;18.736;2023-02-14T00:44:07;6.57;;;4.60;;
21438;SDS011;10880;50.302;18.736;2023-02-14T00:46:35;6.77;;;4.50;;
21438;SDS011;10880;50.302;18.736;2023-02-14T00:49:01;7.60;;;5.00;;
21438;SDS011;10880;50.302;18.736;2023-02-14T00:51:28;7.40;;;4.73;;
21438;SDS011;10880;50.302;18.736;2023-02-14T00:53:55;8.33;;;5.20;;
21438;SDS011;10880;50.302;18.736;2023-02-14T00:56:22;6.80;;;5.03;;
21438;SDS011;10880;50.302;18.736;2023-02-14T00:58:48;6.23;;;4.53;;
21438;SDS011;10880;50.302;18.736;2023-02-14T01:01:16;5.30;;;4.50;;
21438;SDS011;10880;50.302;18.736;2023-02-14T01:03:44;6.87;;;4.77;;
21438;SDS011;10880;50.302;18.736;2023-02-14T01:06:11;6.83;;;4.23;;
21438;SDS011;10880;50.302;18.736;2023-02-14T01:08:37;5.23;;;4.17;;
21438;SDS011;10880;50.302;18.736;2023-02-14T01:11:11;6.20;;;4.27;;
21438;SDS011;10880;50.302;18.736;2023-02-14T01:13:40;5.47;;;4.17;;
21438;SDS011;10880;50.302;18.736;2023-02-14T01:16:11;4.80;;;4.03;;
21438;SDS011;10880;50.302;18.736;2023-02-14T01:18:39;4.93;;;3.90;;
21438;SDS011;10880;50.302;18.736;2023-02-14T01:21:09;5.30;;;3.90;;
21438;SDS011;10880;50.302;18.736;2023-02-14T01:23:39;5.70;;;3.97;;
21438;SDS011;10880;50.302;18.736;2023-02-14T01:26:06;5.73;;;4.20;;
21438;SDS011;10880;50.302;18.736;2023-02-14T01:28:34;6.63;;;4.70;;
21438;SDS011;10880;50.302;18.736;2023-02-14T01:33:36;7.47;;;5.23;;
21438;SDS011;10880;50.302;18.736;2023-02-14T01:36:03;4.77;;;4.10;;
21438;SDS011;10880;50.302;18.736;2023-02-14T01:38:30;6.40;;;4.30;;
21438;SDS011;10880;50.302;18.736;2023-02-14T01:40:57;6.17;;;4.00;;
21438;SDS011;10880;50.302;18.736;2023-02-14T01:43:27;6.83;;;4.33;;
21438;SDS011;10880;50.302;18.736;2023-02-14T01:45:54;5.83;;;3.80;;
21438;SDS011;10880;50.302;18.736;2023-02-14T01:48:20;5.77;;;3.73;;
21438;SDS011;10880;50.302;18.736;2023-02-14T01:50:48;5.80;;;3.70;;
21438;SDS011;10880;50.302;18.736;2023-02-14T01:53:19;4.47;;;3.43;;
21438;SDS011;10880;50.302;18.736;2023-02-14T01:55:50;4.00;;;3.43;;
21438;SDS011;10880;50.302;18.736;2023-02-14T01:58:23;3.67;;;3.30;;
21438;SDS011;10880;50.302;18.736;2023-02-14T02:00:52;4.37;;;3.60;;
21438;SDS011;10880;50.302;18.736;2023-02-14T02:03:33;4.37;;;3.40;;
21438;SDS011;10880;50.302;18.736;2023-02-14T02:06:07;4.90;;;3.87;;
21438;SDS011;10880;50.302;18.736;2023-02-14T02:11:42;4.67;;;3.80;;
21438;SDS011;10880;50.302;18.736;2023-02-14T02:14:13;4.67;;;3.40;;
21438;SDS011;10880;50.302;18.736;2023-02-14T02:35:03;6.33;;;3.87;;
21438;SDS011;10880;50.302;18.736;2023-02-14T02:43:06;4.97;;;3.77;;
21438;SDS011;10880;50.302;18.736;2023-02-14T02:48:30;5.47;;;3.93;;
21438;SDS011;10880;50.302;18.736;2023-02-14T02:51:09;4.20;;;3.80;;
21438;SDS011;10880;50.302;18.736;2023-02-14T02:54:06;4.37;;;3.57;;
21438;SDS011;10880;50.302;18.736;2023-02-14T02:56:43;5.30;;;3.87;;
21438;SDS011;10880;50.302;18.736;2023-02-14T03:01:55;4.93;;;3.30;;
21438;SDS011;10880;50.302;18.736;2023-02-14T03:04:29;4.23;;;3.43;;
21438;SDS011;10880;50.302;18.736;2023-02-14T03:10:11;4.27;;;3.43;;
21438;SDS011;10880;50.302;18.736;2023-02-14T03:17:58;4.17;;;3.30;;
21438;SDS011;10880;50.302;18.736;2023-02-14T03:23:43;4.00;;;3.23;;
21438;SDS011;10880;50.302;18.736;2023-02-14T03:26:16;3.83;;;3.10;;
21438;SDS011;10880;50.302;18.736;2023-02-14T03:31:59;3.43;;;2.87;;
21438;SDS011;10880;50.302;18.736;2023-02-14T03:34:31;4.17;;;3.13;;
21438;SDS011;10880;50.302;18.736;2023-02-14T03:37:13;3.27;;;2.83;;
21438;SDS011;10880;50.302;18.736;2023-02-14T03:42:21;4.67;;;3.60;;
21438;SDS011;10880;50.302;18.736;2023-02-14T03:45:35;4.57;;;3.70;;
21438;SDS011;10880;50.302;18.736;2023-02-14T03:48:23;4.57;;;3.83;;
21438;SDS011;10880;50.302;18.736;2023-02-14T03:50:52;4.50;;;3.80;;
21438;SDS011;10880;50.302;18.736;2023-02-14T03:53:21;4.00;;;3.47;;
21438;SDS011;10880;50.302;18.736;2023-02-14T03:56:00;4.20;;;3.43;;
21438;SDS011;10880;50.302;18.736;2023-02-14T03:58:34;3.83;;;3.43;;
21438;SDS011;10880;50.302;18.736;2023-02-14T04:01:26;4.93;;;3.37;;
21438;SDS011;10880;50.302;18.736;2023-02-14T04:03:54;4.50;;;3.30;;
21438;SDS011;10880;50.302;18.736;2023-02-14T04:06:22;3.80;;;3.37;;
21438;SDS011;10880;50.302;18.736;2023-02-14T04:08:49;4.90;;;3.70;;
21438;SDS011;10880;50.302;18.736;2023-02-14T04:11:15;5.57;;;3.90;;
21438;SDS011;10880;50.302;18.736;2023-02-14T04:13:42;6.00;;;3.90;;
21438;SDS011;10880;50.302;18.736;2023-02-14T04:16:08;4.83;;;3.67;;
21438;SDS011;10880;50.302;18.736;2023-02-14T04:18:35;4.63;;;3.73;;
21438;SDS011;10880;50.302;18.736;2023-02-14T04:21:20;5.33;;;3.63;;
21438;SDS011;10880;50.302;18.736;2023-02-14T04:23:46;4.97;;;3.80;;
21438;SDS011;10880;50.302;18.736;2023-02-14T04:26:13;5.37;;;4.27;;
21438;SDS011;10880;50.302;18.736;2023-02-14T04:28:39;4.97;;;3.90;;
21438;SDS011;10880;50.302;18.736;2023-02-14T04:31:06;5.60;;;3.53;;
21438;SDS011;10880;50.302;18.736;2023-02-14T04:33:32;6.47;;;3.87;;
21438;SDS011;10880;50.302;18.736;2023-02-14T04:35:59;4.80;;;3.67;;
21438;SDS011;10880;50.302;18.736;2023-02-14T04:38:25;5.10;;;3.60;;
21438;SDS011;10880;50.302;18.736;2023-02-14T04:40:52;4.27;;;3.40;;
21438;SDS011;10880;50.302;18.736;2023-02-14T04:43:18;4.67;;;3.60;;
21438;SDS011;10880;50.302;18.736;2023-02-14T04:45:45;4.73;;;3.57;;
21438;SDS011;10880;50.302;18.736;2023-02-14T04:48:12;6.30;;;4.57;;
21438;SDS011;10880;50.302;18.736;2023-02-14T04:50:38;4.60;;;3.50;;
21438;SDS011;10880;50.302;18.736;2023-02-14T04:53:05;5.90;;;4.10;;
21438;SDS011;10880;50.302;18.736;2023-02-14T04:55:32;4.37;;;3.50;;
21438;SDS011;10880;50.302;18.736;2023-02-14T04:57:59;4.80;;;3.43;;
21438;SDS011;10880;50.302;18.736;2023-02-14T05:00:25;4.60;;;3.50;;
21438;SDS011;10880;50.302;18.736;2023-02-14T05:02:51;3.63;;;3.17;;
21438;SDS011;10880;50.302;18.736;2023-02-14T05:05:18;4.07;;;3.37;;
21438;SDS011;10880;50.302;18.736;2023-02-14T05:07:44;3.90;;;3.37;;
21438;SDS011;10880;50.302;18.736;2023-02-14T05:10:12;5.40;;;3.77;;
21438;SDS011;10880;50.302;18.736;2023-02-14T05:12:39;4.30;;;3.67;;
21438;SDS011;10880;50.302;18.736;2023-02-14T05:15:06;4.27;;;3.70;;
21438;SDS011;10880;50.302;18.736;2023-02-14T05:17:33;5.17;;;3.50;;
21438;SDS011;10880;50.302;18.736;2023-02-14T05:20:00;6.03;;;4.20;;
21438;SDS011;10880;50.302;18.736;2023-02-14T05:22:27;5.13;;;3.77;;
21438;SDS011;10880;50.302;18.736;2023-02-14T05:24:54;4.57;;;3.53;;
21438;SDS011;10880;50.302;18.736;2023-02-14T05:27:20;6.93;;;4.73;;
21438;SDS011;10880;50.302;18.736;2023-02-14T05:29:47;6.67;;;4.07;;
21438;SDS011;10880;50.302;18.736;2023-02-14T05:32:14;5.80;;;3.80;;
21438;SDS011;10880;50.302;18.736;2023-02-14T05:34:40;5.23;;;3.63;;
21438;SDS011;10880;50.302;18.736;2023-02-14T05:37:06;6.27;;;4.10;;
21438;SDS011;10880;50.302;18.736;2023-02-14T05:39:33;5.03;;;3.93;;
21438;SDS011;10880;50.302;18.736;2023-02-14T05:42:00;4.83;;;3.90;;
21438;SDS011;10880;50.302;18.736;2023-02-14T05:44:26;5.37;;;4.03;;
21438;SDS011;10880;50.302;18.736;2023-02-14T05:46:52;5.70;;;3.80;;
21438;SDS011;10880;50.302;18.736;2023-02-14T05:49:20;5.60;;;3.77;;
21438;SDS011;10880;50.302;18.736;2023-02-14T05:51:46;6.37;;;3.97;;
21438;SDS011;10880;50.302;18.736;2023-02-14T05:54:12;5.27;;;3.77;;
21438;SDS011;10880;50.302;18.736;2023-02-14T05:56:39;5.20;;;3.63;;
21438;SDS011;10880;50.302;18.736;2023-02-14T05:59:07;5.30;;;3.70;;
21438;SDS011;10880;50.302;18.736;2023-02-14T06:01:33;6.87;;;4.47;;
21438;SDS011;10880;50.302;18.736;2023-02-14T06:04:00;4.43;;;3.87;;
21438;SDS011;10880;50.302;18.736;2023-02-14T06:06:26;4.73;;;3.67;;
21438;SDS011;10880;50.302;18.736;2023-02-14T06:08:53;4.13;;;3.60;;
21438;SDS011;10880;50.302;18.736;2023-02-14T06:11:20;5.33;;;4.10;;
21438;SDS011;10880;50.302;18.736;2023-02-14T06:13:46;6.80;;;5.20;;
21438;SDS011;10880;50.302;18.736;2023-02-14T06:16:12;6.40;;;4.40;;
21438;SDS011;10880;50.302;18.736;2023-02-14T06:18:39;7.50;;;3.90;;
21438;SDS011;10880;50.302;18.736;2023-02-14T06:21:05;4.47;;;3.70;;
21438;SDS011;10880;50.302;18.736;2023-02-14T06:23:32;4.03;;;3.30;;
21438;SDS011;10880;50.302;18.736;2023-02-14T06:25:58;4.43;;;3.60;;
21438;SDS011;10880;50.302;18.736;2023-02-14T06:28:25;4.83;;;3.50;;
21438;SDS011;10880;50.302;18.736;2023-02-14T06:30:51;3.90;;;3.20;;
21438;SDS011;10880;50.302;18.736;2023-02-14T06:33:18;4.03;;;3.10;;
21438;SDS011;10880;50.302;18.736;2023-02-14T06:35:45;5.60;;;3.70;;
21438;SDS011;10880;50.302;18.736;2023-02-14T06:38:11;4.40;;;3.47;;
21438;SDS011;10880;50.302;18.736;2023-02-14T06:40:38;4.43;;;3.40;;
21438;SDS011;10880;50.302;18.736;2023-02-14T06:43:05;4.00;;;3.20;;
21438;SDS011;10880;50.302;18.736;2023-02-14T06:45:31;4.80;;;3.60;;
21438;SDS011;10880;50.302;18.736;2023-02-14T06:47:58;7.17;;;3.13;;
21438;SDS011;10880;50.302;18.736;2023-02-14T06:50:25;4.33;;;3.50;;
21438;SDS011;10880;50.302;18.736;2023-02-14T06:52:51;4.67;;;3.43;;
21438;SDS011;10880;50.302;18.736;2023-02-14T06:55:18;4.90;;;3.70;;
21438;SDS011;10880;50.302;18.736;2023-02-14T06:57:45;4.30;;;3.30;;
21438;SDS011;10880;50.302;18.736;2023-02-14T07:00:11;3.67;;;3.10;;
21438;SDS011;10880;50.302;18.736;2023-02-14T07:02:42;5.20;;;3.80;;
21438;SDS011;10880;50.302;18.736;2023-02-14T07:05:08;4.50;;;3.47;;
21438;SDS011;10880;50.302;18.736;2023-02-14T07:07:35;3.97;;;3.37;;
21438;SDS011;10880;50.302;18.736;2023-02-14T07:10:02;4.30;;;3.27;;
21438;SDS011;10880;50.302;18.736;2023-02-14T07:12:29;5.90;;;4.23;;
21438;SDS011;10880;50.302;18.736;2023-02-14T07:14:55;5.13;;;4.00;;
21438;SDS011;10880;50.302;18.736;2023-02-14T07:17:22;4.20;;;3.33;;
21438;SDS011;10880;50.302;18.736;2023-02-14T07:19:48;5.07;;;3.80;;
21438;SDS011;10880;50.302;18.736;2023-02-14T07:22:15;4.63;;;3.70;;
21438;SDS011;10880;50.302;18.736;2023-02-14T07:24:45;5.70;;;3.53;;
21438;SDS011;10880;50.302;18.736;2023-02-14T07:27:12;4.20;;;3.10;;
21438;SDS011;10880;50.302;18.736;2023-02-14T07:29:38;6.30;;;4.00;;
21438;SDS011;10880;50.302;18.736;2023-02-14T07:32:05;5.53;;;3.97;;
21438;SDS011;10880;50.302;18.736;2023-02-14T07:34:31;6.50;;;4.13;;
21438;SDS011;10880;50.302;18.736;2023-02-14T07:36:58;7.57;;;4.90;;
21438;SDS011;10880;50.302;18.736;2023-02-14T07:39:26;6.53;;;4.53;;
21438;SDS011;10880;50.302;18.736;2023-02-14T07:41:52;7.00;;;4.63;;
21438;SDS011;10880;50.302;18.736;2023-02-14T07:44:19;6.07;;;4.40;;
21438;SDS011;10880;50.302;18.736;2023-02-14T07:46:46;5.97;;;4.00;;
21438;SDS011;10880;50.302;18.736;2023-02-14T07:49:12;5.40;;;4.13;;
21438;SDS011;10880;50.302;18.736;2023-02-14T07:51:39;5.37;;;3.80;;
21438;SDS011;10880;50.302;18.736;2023-02-14T07:54:09;7.37;;;4.67;;
21438;SDS011;10880;50.302;18.736;2023-02-14T07:56:35;5.87;;;4.30;;
21438;SDS011;10880;50.302;18.736;2023-02-14T07:59:03;5.53;;;4.27;;
21438;SDS011;10880;50.302;18.736;2023-02-14T08:01:29;4.43;;;3.63;;
21438;SDS011;10880;50.302;18.736;2023-02-14T08:03:56;6.77;;;4.80;;
21438;SDS011;10880;50.302;18.736;2023-02-14T08:06:22;6.10;;;4.00;;
21438;SDS011;10880;50.302;18.736;2023-02-14T08:08:50;7.03;;;4.10;;
21438;SDS011;10880;50.302;18.736;2023-02-14T08:11:17;5.93;;;4.30;;
21438;SDS011;10880;50.302;18.736;2023-02-14T08:14:02;7.30;;;4.90;;
21438;SDS011;10880;50.302;18.736;2023-02-14T08:16:29;7.43;;;4.60;;
21438;SDS011;10880;50.302;18.736;2023-02-14T08:18:59;5.77;;;3.77;;
21438;SDS011;10880;50.302;18.736;2023-02-14T08:21:26;8.13;;;3.87;;
21438;SDS011;10880;50.302;18.736;2023-02-14T08:23:53;6.83;;;4.07;;
21438;SDS011;10880;50.302;18.736;2023-02-14T08:26:19;6.90;;;4.23;;
21438;SDS011;10880;50.302;18.736;2023-02-14T08:28:46;10.13;;;4.73;;
21438;SDS011;10880;50.302;18.736;2023-02-14T08:31:19;8.23;;;5.40;;
21438;SDS011;10880;50.302;18.736;2023-02-14T08:33:47;9.43;;;5.70;;
21438;SDS011;10880;50.302;18.736;2023-02-14T08:36:14;7.63;;;5.20;;
21438;SDS011;10880;50.302;18.736;2023-02-14T08:38:43;11.73;;;7.23;;
21438;SDS011;10880;50.302;18.736;2023-02-14T08:41:13;8.67;;;5.63;;
21438;SDS011;10880;50.302;18.736;2023-02-14T08:43:41;6.90;;;4.40;;
21438;SDS011;10880;50.302;18.736;2023-02-14T08:46:08;5.77;;;4.40;;
21438;SDS011;10880;50.302;18.736;2023-02-14T08:48:37;7.17;;;4.87;;
21438;SDS011;10880;50.302;18.736;2023-02-14T08:51:07;6.60;;;4.40;;
21438;SDS011;10880;50.302;18.736;2023-02-14T08:53:35;6.00;;;4.10;;
21438;SDS011;10880;50.302;18.736;2023-02-14T08:56:04;6.50;;;4.80;;
21438;SDS011;10880;50.302;18.736;2023-02-14T08:58:33;9.63;;;5.80;;
21438;SDS011;10880;50.302;18.736;2023-02-14T09:01:01;6.43;;;5.00;;
21438;SDS011;10880;50.302;18.736;2023-02-14T09:03:32;7.67;;;5.07;;
21438;SDS011;10880;50.302;18.736;2023-02-14T09:06:06;7.77;;;6.03;;
21438;SDS011;10880;50.302;18.736;2023-02-14T09:08:35;13.30;;;8.80;;
21438;SDS011;10880;50.302;18.736;2023-02-14T09:11:23;8.73;;;5.77;;
21438;SDS011;10880;50.302;18.736;2023-02-14T09:13:51;13.90;;;6.97;;
21438;SDS011;10880;50.302;18.736;2023-02-14T09:16:19;8.37;;;6.00;;
21438;SDS011;10880;50.302;18.736;2023-02-14T09:18:47;7.87;;;5.63;;
21438;SDS011;10880;50.302;18.736;2023-02-14T09:21:18;8.23;;;5.20;;
21438;SDS011;10880;50.302;18.736;2023-02-14T09:23:47;8.07;;;5.40;;
21438;SDS011;10880;50.302;18.736;2023-02-14T09:26:16;8.07;;;5.20;;
21438;SDS011;10880;50.302;18.736;2023-02-14T09:28:50;8.90;;;5.50;;
21438;SDS011;10880;50.302;18.736;2023-02-14T09:31:18;10.27;;;6.60;;
21438;SDS011;10880;50.302;18.736;2023-02-14T09:33:46;8.97;;;5.80;;
21438;SDS011;10880;50.302;18.736;2023-02-14T10:19:56;10.30;;;6.00;;
21438;SDS011;10880;50.302;18.736;2023-02-14T10:26:10;16.97;;;9.70;;
21438;SDS011;10880;50.302;18.736;2023-02-14T10:48:33;8.17;;;5.60;;
21438;SDS011;10880;50.302;18.736;2023-02-14T11:06:23;8.97;;;5.27;;
21438;SDS011;10880;50.302;18.736;2023-02-14T11:16:36;9.43;;;6.03;;
21438;SDS011;10880;50.302;18.736;2023-02-14T11:41:45;8.83;;;5.70;;
21438;SDS011;10880;50.302;18.736;2023-02-14T11:47:28;8.93;;;5.10;;
21438;SDS011;10880;50.302;18.736;2023-02-14T11:55:56;4.00;;;3.40;;
21438;SDS011;10880;50.302;18.736;2023-02-14T11:58:36;6.33;;;4.00;;
21438;SDS011;10880;50.302;18.736;2023-02-14T12:01:05;5.63;;;4.23;;
21438;SDS011;10880;50.302;18.736;2023-02-14T12:03:45;6.97;;;4.93;;
21438;SDS011;10880;50.302;18.736;2023-02-14T12:06:26;5.47;;;4.20;;
21438;SDS011;10880;50.302;18.736;2023-02-14T12:09:12;4.53;;;3.60;;
21438;SDS011;10880;50.302;18.736;2023-02-14T12:12:03;6.23;;;4.20;;
21438;SDS011;10880;50.302;18.736;2023-02-14T12:14:50;4.80;;;4.07;;
21438;SDS011;10880;50.302;18.736;2023-02-14T12:22:28;6.67;;;4.50;;
21438;SDS011;10880;50.302;18.736;2023-02-14T12:25:10;4.53;;;3.90;;
21438;SDS011;10880;50.302;18.736;2023-02-14T12:27:50;5.20;;;3.40;;
21438;SDS011;10880;50.302;18.736;2023-02-14T12:30:24;4.93;;;4.00;;
21438;SDS011;10880;50.302;18.736;2023-02-14T12:32:52;4.17;;;3.00;;
21438;SDS011;10880;50.302;18.736;2023-02-14T12:40:57;4.97;;;4.07;;
21438;SDS011;10880;50.302;18.736;2023-02-14T12:43:52;7.10;;;3.73;;
21438;SDS011;10880;50.302;18.736;2023-02-14T12:52:07;3.23;;;2.93;;
21438;SDS011;10880;50.302;18.736;2023-02-14T12:58:35;4.70;;;3.10;;
21438;SDS011;10880;50.302;18.736;2023-02-14T13:06:30;4.23;;;3.40;;
21438;SDS011;10880;50.302;18.736;2023-02-14T13:22:37;7.80;;;5.13;;
21438;SDS011;10880;50.302;18.736;2023-02-14T13:25:26;4.43;;;4.00;;
21438;SDS011;10880;50.302;18.736;2023-02-14T13:27:59;4.97;;;4.00;;
21438;SDS011;10880;50.302;18.736;2023-02-14T13:30:30;4.90;;;3.70;;
21438;SDS011;10880;50.302;18.736;2023-02-14T13:35:58;5.13;;;4.07;;
21438;SDS011;10880;50.302;18.736;2023-02-14T13:42:09;7.30;;;5.13;;
21438;SDS011;10880;50.302;18.736;2023-02-14T13:47:04;9.63;;;5.43;;
21438;SDS011;10880;50.302;18.736;2023-02-14T13:49:33;7.93;;;4.87;;
21438;SDS011;10880;50.302;18.736;2023-02-14T13:52:04;6.70;;;3.80;;
21438;SDS011;10880;50.302;18.736;2023-02-14T13:54:46;6.17;;;3.23;;
21438;SDS011;10880;50.302;18.736;2023-02-14T13:57:24;4.80;;;3.37;;
21438;SDS011;10880;50.302;18.736;2023-02-14T14:03:13;4.10;;;3.07;;
21438;SDS011;10880;50.302;18.736;2023-02-14T14:08:39;3.03;;;2.73;;
21438;SDS011;10880;50.302;18.736;2023-02-14T14:11:47;3.03;;;2.73;;
21438;SDS011;10880;50.302;18.736;2023-02-14T14:14:00;3.23;;;2.93;;
21438;SDS011;10880;50.302;18.736;2023-02-14T14:16:58;2.97;;;2.67;;
21438;SDS011;10880;50.302;18.736;2023-02-14T14:22:06;2.70;;;2.50;;
21438;SDS011;10880;50.302;18.736;2023-02-14T14:24:39;3.53;;;3.00;;
21438;SDS011;10880;50.302;18.736;2023-02-14T14:27:17;3.40;;;2.80;;
21438;SDS011;10880;50.302;18.736;2023-02-14T14:29:59;2.97;;;2.67;;
21438;SDS011;10880;50.302;18.736;2023-02-14T14:32:37;6.17;;;3.77;;
21438;SDS011;10880;50.302;18.736;2023-02-14T14:35:05;7.87;;;4.30;;
21438;SDS011;10880;50.302;18.736;2023-02-14T14:37:51;10.97;;;5.47;;
21438;SDS011;10880;50.302;18.736;2023-02-14T14:43:10;14.10;;;7.00;;
21438;SDS011;10880;50.302;18.736;2023-02-14T14:45:59;9.20;;;5.23;;
21438;SDS011;10880;50.302;18.736;2023-02-14T14:48:31;8.60;;;4.93;;
21438;SDS011;10880;50.302;18.736;2023-02-14T14:51:06;5.10;;;3.90;;
21438;SDS011;10880;50.302;18.736;2023-02-14T14:53:47;4.27;;;3.50;;
21438;SDS011;10880;50.302;18.736;2023-02-14T14:56:21;4.03;;;3.03;;
21438;SDS011;10880;50.302;18.736;2023-02-14T14:58:50;4.00;;;3.23;;
21438;SDS011;10880;50.302;18.736;2023-02-14T15:01:27;3.97;;;3.23;;
21438;SDS011;10880;50.302;18.736;2023-02-14T15:06:50;6.90;;;4.83;;
21438;SDS011;10880;50.302;18.736;2023-02-14T15:09:21;6.37;;;4.40;;
21438;SDS011;10880;50.302;18.736;2023-02-14T15:11:54;5.20;;;4.27;;
21438;SDS011;10880;50.302;18.736;2023-02-14T15:14:42;4.53;;;3.40;;
21438;SDS011;10880;50.302;18.736;2023-02-14T15:17:18;3.43;;;3.13;;
21438;SDS011;10880;50.302;18.736;2023-02-14T15:19:57;3.17;;;2.87;;
21438;SDS011;10880;50.302;18.736;2023-02-14T15:25:11;3.10;;;2.70;;
21438;SDS011;10880;50.302;18.736;2023-02-14T15:27:43;3.40;;;3.10;;
21438;SDS011;10880;50.302;18.736;2023-02-14T15:32:49;3.60;;;3.10;;
21438;SDS011;10880;50.302;18.736;2023-02-14T15:35:20;3.73;;;3.33;;
21438;SDS011;10880;50.302;18.736;2023-02-14T15:37:51;4.90;;;3.30;;
21438;SDS011;10880;50.302;18.736;2023-02-14T15:40:19;3.93;;;3.37;;
21438;SDS011;10880;50.302;18.736;2023-02-14T15:42:51;4.47;;;3.40;;
21438;SDS011;10880;50.302;18.736;2023-02-14T15:48:02;4.50;;;3.80;;
21438;SDS011;10880;50.302;18.736;2023-02-14T15:50:32;4.23;;;3.60;;
21438;SDS011;10880;50.302;18.736;2023-02-14T15:53:02;3.50;;;3.20;;
21438;SDS011;10880;50.302;18.736;2023-02-14T15:55:52;4.20;;;3.50;;
21438;SDS011;10880;50.302;18.736;2023-02-14T15:58:27;3.77;;;3.07;;
21438;SDS011;10880;50.302;18.736;2023-02-14T16:00:57;4.73;;;3.77;;
21438;SDS011;10880;50.302;18.736;2023-02-14T16:03:25;6.27;;;4.60;;
21438;SDS011;10880;50.302;18.736;2023-02-14T16:05:53;7.27;;;5.33;;
21438;SDS011;10880;50.302;18.736;2023-02-14T16:11:04;6.23;;;4.73;;
21438;SDS011;10880;50.302;18.736;2023-02-14T16:13:38;5.10;;;4.03;;
21438;SDS011;10880;50.302;18.736;2023-02-14T16:16:07;6.67;;;4.50;;
21438;SDS011;10880;50.302;18.736;2023-02-14T16:18:41;5.63;;;4.17;;
21438;SDS011;10880;50.302;18.736;2023-02-14T16:21:19;4.60;;;3.90;;
21438;SDS011;10880;50.302;18.736;2023-02-14T16:26:32;4.90;;;3.40;;
21438;SDS011;10880;50.302;18.736;2023-02-14T16:29:01;4.03;;;3.63;;
21438;SDS011;10880;50.302;18.736;2023-02-14T16:31:28;3.33;;;3.00;;
21438;SDS011;10880;50.302;18.736;2023-02-14T16:33:55;3.57;;;3.27;;
21438;SDS011;10880;50.302;18.736;2023-02-14T16:36:24;4.07;;;3.23;;
21438;SDS011;10880;50.302;18.736;2023-02-14T16:38:52;3.93;;;3.33;;
21438;SDS011;10880;50.302;18.736;2023-02-14T16:41:23;4.80;;;3.17;;
21438;SDS011;10880;50.302;18.736;2023-02-14T16:43:52;3.40;;;3.10;;
21438;SDS011;10880;50.302;18.736;2023-02-14T16:46:20;4.80;;;3.50;;
21438;SDS011;10880;50.302;18.736;2023-02-14T16:48:52;3.50;;;2.93;;
21438;SDS011;10880;50.302;18.736;2023-02-14T16:51:20;3.77;;;3.13;;
21438;SDS011;10880;50.302;18.736;2023-02-14T16:53:50;3.80;;;3.40;;
21438;SDS011;10880;50.302;18.736;2023-02-14T16:56:22;5.23;;;3.77;;
21438;SDS011;10880;50.302;18.736;2023-02-14T16:58:55;5.43;;;3.90;;
21438;SDS011;10880;50.302;18.736;2023-02-14T17:01:23;7.30;;;4.77;;
21438;SDS011;10880;50.302;18.736;2023-02-14T17:03:50;8.83;;;5.63;;
21438;SDS011;10880;50.302;18.736;2023-02-14T17:06:19;8.53;;;5.47;;
21438;SDS011;10880;50.302;18.736;2023-02-14T17:08:49;9.03;;;5.50;;
21438;SDS011;10880;50.302;18.736;2023-02-14T17:11:17;8.50;;;5.20;;
21438;SDS011;10880;50.302;18.736;2023-02-14T17:13:45;9.50;;;5.13;;
21438;SDS011;10880;50.302;18.736;2023-02-14T17:16:13;8.63;;;5.03;;
21438;SDS011;10880;50.302;18.736;2023-02-14T17:18:42;8.47;;;4.90;;
21438;SDS011;10880;50.302;18.736;2023-02-14T17:21:12;8.43;;;4.90;;
21438;SDS011;10880;50.302;18.736;2023-02-14T17:23:40;8.10;;;4.90;;
21438;SDS011;10880;50.302;18.736;2023-02-14T17:26:06;7.03;;;4.50;;
21438;SDS011;10880;50.302;18.736;2023-02-14T17:28:34;6.57;;;4.07;;
21438;SDS011;10880;50.302;18.736;2023-02-14T17:31:00;9.40;;;5.63;;
21438;SDS011;10880;50.302;18.736;2023-02-14T17:33:30;8.90;;;5.87;;
21438;SDS011;10880;50.302;18.736;2023-02-14T17:36:05;9.40;;;5.53;;
21438;SDS011;10880;50.302;18.736;2023-02-14T17:38:34;8.30;;;5.40;;
21438;SDS011;10880;50.302;18.736;2023-02-14T17:41:13;7.23;;;4.83;;
21438;SDS011;10880;50.302;18.736;2023-02-14T17:43:42;7.77;;;5.10;;
21438;SDS011;10880;50.302;18.736;2023-02-14T17:46:14;7.13;;;5.03;;
21438;SDS011;10880;50.302;18.736;2023-02-14T17:48:43;8.60;;;5.43;;
21438;SDS011;10880;50.302;18.736;2023-02-14T17:51:12;7.50;;;5.10;;
21438;SDS011;10880;50.302;18.736;2023-02-14T17:53:40;6.20;;;4.63;;
21438;SDS011;10880;50.302;18.736;2023-02-14T17:56:08;6.17;;;4.63;;
21438;SDS011;10880;50.302;18.736;2023-02-14T17:58:37;6.33;;;4.60;;
21438;SDS011;10880;50.302;18.736;2023-02-14T18:01:07;7.40;;;4.57;;
21438;SDS011;10880;50.302;18.736;2023-02-14T18:03:36;6.17;;;4.67;;
21438;SDS011;10880;50.302;18.736;2023-02-14T18:06:04;6.33;;;4.63;;
21438;SDS011;10880;50.302;18.736;2023-02-14T18:08:34;7.97;;;4.63;;
21438;SDS011;10880;50.302;18.736;2023-02-14T18:11:09;6.20;;;4.23;;
21438;SDS011;10880;50.302;18.736;2023-02-14T18:13:38;6.03;;;4.67;;
21438;SDS011;10880;50.302;18.736;2023-02-14T18:16:09;7.87;;;5.00;;
21438;SDS011;10880;50.302;18.736;2023-02-14T18:18:37;7.33;;;4.67;;
21438;SDS011;10880;50.302;18.736;2023-02-14T18:21:07;7.23;;;4.70;;
21438;SDS011;10880;50.302;18.736;2023-02-14T18:23:36;6.67;;;4.57;;
21438;SDS011;10880;50.302;18.736;2023-02-14T18:26:05;6.57;;;4.60;;
21438;SDS011;10880;50.302;18.736;2023-02-14T18:28:33;8.80;;;4.77;;
21438;SDS011;10880;50.302;18.736;2023-02-14T18:31:02;8.20;;;4.93;;
21438;SDS011;10880;50.302;18.736;2023-02-14T18:33:33;8.47;;;5.43;;
21438;SDS011;10880;50.302;18.736;2023-02-14T18:36:01;8.50;;;5.00;;
21438;SDS011;10880;50.302;18.736;2023-02-14T18:38:29;7.73;;;5.03;;
21438;SDS011;10880;50.302;18.736;2023-02-14T18:41:00;9.17;;;5.60;;
21438;SDS011;10880;50.302;18.736;2023-02-14T18:43:33;11.40;;;5.97;;
21438;SDS011;10880;50.302;18.736;2023-02-14T18:46:05;7.50;;;5.23;;
21438;SDS011;10880;50.302;18.736;2023-02-14T18:48:37;6.37;;;4.70;;
21438;SDS011;10880;50.302;18.736;2023-02-14T18:51:05;7.37;;;5.10;;
21438;SDS011;10880;50.302;18.736;2023-02-14T18:53:41;7.50;;;4.77;;
21438;SDS011;10880;50.302;18.736;2023-02-14T18:56:13;6.53;;;4.77;;
21438;SDS011;10880;50.302;18.736;2023-02-14T18:58:42;8.33;;;4.83;;
21438;SDS011;10880;50.302;18.736;2023-02-14T19:01:14;7.00;;;5.10;;
21438;SDS011;10880;50.302;18.736;2023-02-14T19:03:43;7.23;;;5.03;;